Buhler, Kansas
Current Conditions -  °F | °C
As of 9:52 AM on Monday 26 Jan 2015 (Local Time) from KHUT Reporting Station
Clear Clear  
Wind Chill: 42°   Ceiling: Unl
Heat Index: 47°   Visibility: 10mi
Dew Point: 32°   Wind: 12mph
Humidity: 56%   Direction: 320°NW
Pressure: 30.03"   Gusts: NA
Location:  38.13°N, 97.77°W
Report Text: KHUT 261552Z 32010KT 10SM CLR 08/00 A3003 RMK AO2 SLP173 T00830000
Loading
Personal Weather Stations






























Interactive Weather Map New forecast layout! Learn more

10-Day Weather Forecast

Advertisements
Track Severe Weather on mobile